sensor_id;sensor_type;location;lat;lon;timestamp;pressure;altitude;pressure_sealevel;temperature;humidity
8637;BME280;4356;49.068;8.658;2023-02-11T00:00:22;101996.34;;;17.62;29.31
8637;BME280;4356;49.068;8.658;2023-02-11T00:02:48;101980.66;;;17.56;28.96
8637;BME280;4356;49.068;8.658;2023-02-11T00:05:14;101990.69;;;17.56;28.91
8637;BME280;4356;49.068;8.658;2023-02-11T00:07:40;101978.94;;;17.47;29.02
8637;BME280;4356;49.068;8.658;2023-02-11T00:10:09;101985.59;;;17.53;28.77
8637;BME280;4356;49.068;8.658;2023-02-11T00:12:36;101974.38;;;17.48;29.01
8637;BME280;4356;49.068;8.658;2023-02-11T00:15:03;101993.91;;;17.51;29.13
8637;BME280;4356;49.068;8.658;2023-02-11T00:17:30;101958.97;;;17.30;28.99
8637;BME280;4356;49.068;8.658;2023-02-11T00:19:56;101975.66;;;17.35;29.04
8637;BME280;4356;49.068;8.658;2023-02-11T00:22:22;101989.09;;;17.45;29.00
8637;BME280;4356;49.068;8.658;2023-02-11T00:24:47;101985.69;;;17.43;29.19
8637;BME280;4356;49.068;8.658;2023-02-11T00:27:13;101999.97;;;17.45;29.10
8637;BME280;4356;49.068;8.658;2023-02-11T00:29:39;101993.31;;;17.39;28.96
8637;BME280;4356;49.068;8.658;2023-02-11T00:32:05;101996.03;;;17.39;28.96
8637;BME280;4356;49.068;8.658;2023-02-11T00:34:34;101995.22;;;17.39;29.28
8637;BME280;4356;49.068;8.658;2023-02-11T00:37:00;101981.91;;;17.28;29.27
8637;BME280;4356;49.068;8.658;2023-02-11T00:39:26;101988.41;;;17.35;29.39
8637;BME280;4356;49.068;8.658;2023-02-11T00:41:51;101996.72;;;17.33;29.34
8637;BME280;4356;49.068;8.658;2023-02-11T00:44:19;101977.31;;;17.28;29.93
8637;BME280;4356;49.068;8.658;2023-02-11T00:46:45;101985.34;;;17.30;29.50
8637;BME280;4356;49.068;8.658;2023-02-11T00:49:11;101969.31;;;17.19;29.83
8637;BME280;4356;49.068;8.658;2023-02-11T00:51:36;101977.13;;;17.22;29.85
8637;BME280;4356;49.068;8.658;2023-02-11T00:54:02;101982.91;;;17.27;29.56
8637;BME280;4356;49.068;8.658;2023-02-11T00:56:28;101964.34;;;17.14;29.87
8637;BME280;4356;49.068;8.658;2023-02-11T00:58:54;101975.44;;;17.21;29.88
8637;BME280;4356;49.068;8.658;2023-02-11T01:01:19;101973.88;;;17.18;29.50
8637;BME280;4356;49.068;8.658;2023-02-11T01:03:45;101973.03;;;17.18;29.93
8637;BME280;4356;49.068;8.658;2023-02-11T01:06:11;101965.22;;;17.15;30.08
8637;BME280;4356;49.068;8.658;2023-02-11T01:08:37;101962.34;;;17.16;29.94
8637;BME280;4356;49.068;8.658;2023-02-11T01:11:06;101957.06;;;17.15;29.85
8637;BME280;4356;49.068;8.658;2023-02-11T01:13:34;101937.47;;;17.03;30.12
8637;BME280;4356;49.068;8.658;2023-02-11T01:16:02;101957.41;;;17.12;30.16
8637;BME280;4356;49.068;8.658;2023-02-11T01:18:28;101929.16;;;16.97;29.88
8637;BME280;4356;49.068;8.658;2023-02-11T01:20:54;101944.47;;;17.06;29.95
8637;BME280;4356;49.068;8.658;2023-02-11T01:23:20;101919.09;;;16.89;29.98
8637;BME280;4356;49.068;8.658;2023-02-11T01:25:45;101932.84;;;16.96;29.75
8637;BME280;4356;49.068;8.658;2023-02-11T01:28:22;101943.78;;;17.04;29.92
8637;BME280;4356;49.068;8.658;2023-02-11T01:30:48;101947.81;;;17.00;30.07
8637;BME280;4356;49.068;8.658;2023-02-11T01:33:14;101948.69;;;17.00;29.80
8637;BME280;4356;49.068;8.658;2023-02-11T01:35:40;101950.53;;;17.00;29.60
8637;BME280;4356;49.068;8.658;2023-02-11T01:38:07;101941.56;;;16.99;29.90
8637;BME280;4356;49.068;8.658;2023-02-11T01:40:38;101942.56;;;16.98;29.87
8637;BME280;4356;49.068;8.658;2023-02-11T01:43:04;101942.72;;;16.97;29.97
8637;BME280;4356;49.068;8.658;2023-02-11T01:48:17;101938.28;;;16.96;30.24
8637;BME280;4356;49.068;8.658;2023-02-11T01:50:45;101935.75;;;16.94;30.13
8637;BME280;4356;49.068;8.658;2023-02-11T01:53:13;101938.47;;;16.94;30.08
8637;BME280;4356;49.068;8.658;2023-02-11T01:55:58;101929.78;;;16.91;30.10
8637;BME280;4356;49.068;8.658;2023-02-11T01:58:44;101913.78;;;16.80;30.16
8637;BME280;4356;49.068;8.658;2023-02-11T02:01:15;101927.56;;;16.86;30.13
8637;BME280;4356;49.068;8.658;2023-02-11T02:03:44;101925.69;;;16.87;30.17
8637;BME280;4356;49.068;8.658;2023-02-11T02:06:18;101926.53;;;16.87;30.44
8637;BME280;4356;49.068;8.658;2023-02-11T02:08:54;101916.50;;;16.80;30.18
8637;BME280;4356;49.068;8.658;2023-02-11T02:11:22;101923.66;;;16.81;30.11
8637;BME280;4356;49.068;8.658;2023-02-11T02:13:48;101929.44;;;16.86;30.36
8637;BME280;4356;49.068;8.658;2023-02-11T02:16:16;101930.59;;;16.83;30.33
8637;BME280;4356;49.068;8.658;2023-02-11T02:24:43;101922.78;;;16.80;30.25
8637;BME280;4356;49.068;8.658;2023-02-11T02:30:34;101911.41;;;16.77;30.47
8637;BME280;4356;49.068;8.658;2023-02-11T02:36:08;101896.44;;;16.73;30.60
8637;BME280;4356;49.068;8.658;2023-02-11T02:38:55;101892.03;;;16.72;30.77
8637;BME280;4356;49.068;8.658;2023-02-11T02:41:32;101882.66;;;16.66;30.66
8637;BME280;4356;49.068;8.658;2023-02-11T02:43:59;101887.94;;;16.68;30.57
8637;BME280;4356;49.068;8.658;2023-02-11T02:48:53;101887.06;;;16.67;30.51
8637;BME280;4356;49.068;8.658;2023-02-11T02:57:17;101876.38;;;16.66;30.20
8637;BME280;4356;49.068;8.658;2023-02-11T03:00:13;101870.25;;;16.64;30.21
8637;BME280;4356;49.068;8.658;2023-02-11T03:05:18;101875.84;;;16.62;30.49
8637;BME280;4356;49.068;8.658;2023-02-11T03:08:02;101864.13;;;16.62;30.41
8637;BME280;4356;49.068;8.658;2023-02-11T03:10:39;101868.06;;;16.59;30.19
8637;BME280;4356;49.068;8.658;2023-02-11T03:13:06;101871.59;;;16.60;30.39
8637;BME280;4356;49.068;8.658;2023-02-11T03:15:37;101866.16;;;16.60;30.33
8637;BME280;4356;49.068;8.658;2023-02-11T03:18:07;101856.50;;;16.57;30.14
8637;BME280;4356;49.068;8.658;2023-02-11T03:20:35;101855.31;;;16.60;30.25
8637;BME280;4356;49.068;8.658;2023-02-11T03:23:25;101852.94;;;16.57;30.44
8637;BME280;4356;49.068;8.658;2023-02-11T03:26:05;101862.63;;;16.59;30.33
8637;BME280;4356;49.068;8.658;2023-02-11T03:31:25;101850.03;;;16.58;30.31
8637;BME280;4356;49.068;8.658;2023-02-11T03:34:00;101830.34;;;16.56;30.30
8637;BME280;4356;49.068;8.658;2023-02-11T03:36:43;101833.22;;;16.55;30.45
8637;BME280;4356;49.068;8.658;2023-02-11T03:39:24;101827.63;;;16.56;30.44
8637;BME280;4356;49.068;8.658;2023-02-11T03:41:51;101838.84;;;16.53;30.31
8637;BME280;4356;49.068;8.658;2023-02-11T03:44:21;101831.72;;;16.52;30.58
8637;BME280;4356;49.068;8.658;2023-02-11T03:46:54;101850.53;;;16.54;30.57
8637;BME280;4356;49.068;8.658;2023-02-11T03:49:21;101854.59;;;16.50;30.64
8637;BME280;4356;49.068;8.658;2023-02-11T03:51:51;101870.72;;;16.51;30.37
8637;BME280;4356;49.068;8.658;2023-02-11T03:54:22;101861.72;;;16.51;30.45
8637;BME280;4356;49.068;8.658;2023-02-11T03:56:52;101842.13;;;16.39;30.58
8637;BME280;4356;49.068;8.658;2023-02-11T03:59:18;101848.53;;;16.38;30.71
8637;BME280;4356;49.068;8.658;2023-02-11T04:01:44;101863.75;;;16.49;30.82
8637;BME280;4356;49.068;8.658;2023-02-11T04:04:10;101859.63;;;16.44;30.90
8637;BME280;4356;49.068;8.658;2023-02-11T04:06:35;101863.03;;;16.46;30.78
8637;BME280;4356;49.068;8.658;2023-02-11T04:09:01;101856.63;;;16.48;31.06
8637;BME280;4356;49.068;8.658;2023-02-11T04:11:27;101854.03;;;16.46;30.75
8637;BME280;4356;49.068;8.658;2023-02-11T04:13:52;101831.91;;;16.33;30.90
8637;BME280;4356;49.068;8.658;2023-02-11T04:16:18;101851.31;;;16.46;31.15
8637;BME280;4356;49.068;8.658;2023-02-11T04:18:44;101853.03;;;16.47;30.90
8637;BME280;4356;49.068;8.658;2023-02-11T04:21:09;101851.31;;;16.46;30.79
8637;BME280;4356;49.068;8.658;2023-02-11T04:23:35;101837.00;;;16.36;31.08
8637;BME280;4356;49.068;8.658;2023-02-11T04:26:01;101855.75;;;16.47;31.29
8637;BME280;4356;49.068;8.658;2023-02-11T04:28:26;101839.41;;;16.39;30.87
8637;BME280;4356;49.068;8.658;2023-02-11T04:30:54;101849.59;;;16.45;30.87
8637;BME280;4356;49.068;8.658;2023-02-11T04:33:20;101852.66;;;16.42;30.97
8637;BME280;4356;49.068;8.658;2023-02-11T04:35:45;101852.47;;;16.43;31.04
8637;BME280;4356;49.068;8.658;2023-02-11T04:38:11;101846.22;;;16.43;30.98
8637;BME280;4356;49.068;8.658;2023-02-11T04:40:37;101843.81;;;16.40;31.14
8637;BME280;4356;49.068;8.658;2023-02-11T04:43:03;101848.94;;;16.43;30.87
8637;BME280;4356;49.068;8.658;2023-02-11T04:45:29;101843.00;;;16.39;30.93
8637;BME280;4356;49.068;8.658;2023-02-11T04:47:54;101838.09;;;16.43;31.10
8637;BME280;4356;49.068;8.658;2023-02-11T04:50:20;101826.84;;;16.38;30.79
8637;BME280;4356;49.068;8.658;2023-02-11T04:52:46;101839.94;;;16.42;30.93
8637;BME280;4356;49.068;8.658;2023-02-11T04:55:11;101822.44;;;16.37;31.25
8637;BME280;4356;49.068;8.658;2023-02-11T04:57:37;101822.09;;;16.40;31.06
8637;BME280;4356;49.068;8.658;2023-02-11T05:00:04;101818.56;;;16.39;31.30
8637;BME280;4356;49.068;8.658;2023-02-11T05:02:30;101805.31;;;16.36;31.41
8637;BME280;4356;49.068;8.658;2023-02-11T05:04:56;101793.28;;;16.39;31.29
8637;BME280;4356;49.068;8.658;2023-02-11T05:07:22;101782.25;;;16.40;31.08
8637;BME280;4356;49.068;8.658;2023-02-11T05:09:48;101779.72;;;16.39;31.33
8637;BME280;4356;49.068;8.658;2023-02-11T05:12:13;101767.97;;;16.30;31.43
8637;BME280;4356;49.068;8.658;2023-02-11T05:14:39;101749.09;;;16.21;31.21
8637;BME280;4356;49.068;8.658;2023-02-11T05:17:05;101763.38;;;16.23;31.38
8637;BME280;4356;49.068;8.658;2023-02-11T05:19:30;101771.75;;;16.37;31.57
8637;BME280;4356;49.068;8.658;2023-02-11T05:21:56;101773.59;;;16.37;31.45
8637;BME280;4356;49.068;8.658;2023-02-11T05:24:22;101752.88;;;16.28;31.32
8637;BME280;4356;49.068;8.658;2023-02-11T05:26:48;101743.88;;;16.27;31.37
8637;BME280;4356;49.068;8.658;2023-02-11T05:29:13;101760.72;;;16.39;31.35
8637;BME280;4356;49.068;8.658;2023-02-11T05:31:39;101770.34;;;16.33;31.33
8637;BME280;4356;49.068;8.658;2023-02-11T05:34:04;101797.84;;;16.38;31.37
8637;BME280;4356;49.068;8.658;2023-02-11T05:36:30;101799.19;;;16.34;31.37
8637;BME280;4356;49.068;8.658;2023-02-11T05:38:56;101816.84;;;16.38;31.36
8637;BME280;4356;49.068;8.658;2023-02-11T05:41:21;101806.00;;;16.38;31.43
8637;BME280;4356;49.068;8.658;2023-02-11T05:43:49;101797.81;;;16.30;31.38
8637;BME280;4356;49.068;8.658;2023-02-11T05:46:16;101797.66;;;16.32;31.37
8637;BME280;4356;49.068;8.658;2023-02-11T05:48:42;101808.00;;;16.36;31.55
8637;BME280;4356;49.068;8.658;2023-02-11T05:51:08;101805.97;;;16.30;31.61
8637;BME280;4356;49.068;8.658;2023-02-11T05:53:33;101813.44;;;16.36;31.39
8637;BME280;4356;49.068;8.658;2023-02-11T05:55:59;101824.63;;;16.33;31.50
8637;BME280;4356;49.068;8.658;2023-02-11T05:58:25;101817.19;;;16.35;31.55
8637;BME280;4356;49.068;8.658;2023-02-11T06:00:51;101816.00;;;16.38;31.61
8637;BME280;4356;49.068;8.658;2023-02-11T06:03:17;101808.53;;;16.40;31.54
8637;BME280;4356;49.068;8.658;2023-02-11T06:05:43;101806.69;;;16.40;31.56
8637;BME280;4356;49.068;8.658;2023-02-11T06:08:09;101808.69;;;16.38;31.34
8637;BME280;4356;49.068;8.658;2023-02-11T06:10:35;101807.00;;;16.37;31.58
8637;BME280;4356;49.068;8.658;2023-02-11T06:13:01;101799.19;;;16.34;31.73
8637;BME280;4356;49.068;8.658;2023-02-11T06:15:26;101803.63;;;16.35;31.79
8637;BME280;4356;49.068;8.658;2023-02-11T06:17:52;101803.63;;;16.35;31.67
8637;BME280;4356;49.068;8.658;2023-02-11T06:20:18;101823.13;;;16.39;31.71
8637;BME280;4356;49.068;8.658;2023-02-11T06:22:44;101813.59;;;16.35;31.66
8637;BME280;4356;49.068;8.658;2023-02-11T06:25:10;101813.44;;;16.36;31.58
8637;BME280;4356;49.068;8.658;2023-02-11T06:27:36;101796.81;;;16.31;31.67
8637;BME280;4356;49.068;8.658;2023-02-11T06:30:03;101810.25;;;16.41;31.70
8637;BME280;4356;49.068;8.658;2023-02-11T06:32:32;101812.97;;;16.41;32.04
8637;BME280;4356;49.068;8.658;2023-02-11T06:34:58;101812.81;;;16.42;31.74
8637;BME280;4356;49.068;8.658;2023-02-11T06:37:24;101802.28;;;16.39;31.60
8637;BME280;4356;49.068;8.658;2023-02-11T06:39:50;101802.13;;;16.41;31.61
8637;BME280;4356;49.068;8.658;2023-02-11T06:42:15;101793.59;;;16.36;31.49
8637;BME280;4356;49.068;8.658;2023-02-11T06:44:41;101803.97;;;16.40;31.64
8637;BME280;4356;49.068;8.658;2023-02-11T06:47:06;101818.41;;;16.41;31.22
8637;BME280;4356;49.068;8.658;2023-02-11T06:49:32;101805.00;;;16.39;31.57
8637;BME280;4356;49.068;8.658;2023-02-11T06:52:01;101811.41;;;16.38;31.37
8637;BME280;4356;49.068;8.658;2023-02-11T06:54:27;101815.84;;;16.39;31.63
8637;BME280;4356;49.068;8.658;2023-02-11T06:56:53;101806.69;;;16.40;31.56
8637;BME280;4356;49.068;8.658;2023-02-11T06:59:18;101798.72;;;16.39;31.52
8637;BME280;4356;49.068;8.658;2023-02-11T07:01:47;101813.28;;;16.38;31.61
8637;BME280;4356;49.068;8.658;2023-02-11T07:04:13;101825.50;;;16.42;31.78
8637;BME280;4356;49.068;8.658;2023-02-11T07:06:40;101818.41;;;16.41;31.67
8637;BME280;4356;49.068;8.658;2023-02-11T07:09:06;101821.28;;;16.39;31.77
8637;BME280;4356;49.068;8.658;2023-02-11T07:11:32;101828.38;;;16.40;31.67
8637;BME280;4356;49.068;8.658;2023-02-11T07:14:05;101839.94;;;16.42;31.87
8637;BME280;4356;49.068;8.658;2023-02-11T07:16:33;101846.06;;;16.44;31.74
8637;BME280;4356;49.068;8.658;2023-02-11T07:19:00;101851.50;;;16.44;31.87
8637;BME280;4356;49.068;8.658;2023-02-11T07:21:30;101836.19;;;16.35;31.32
8637;BME280;4356;49.068;8.658;2023-02-11T07:24:00;101820.00;;;16.26;31.49
8637;BME280;4356;49.068;8.658;2023-02-11T07:26:25;101849.75;;;16.43;31.65
8637;BME280;4356;49.068;8.658;2023-02-11T07:28:54;101864.59;;;16.49;31.69
8637;BME280;4356;49.068;8.658;2023-02-11T07:31:23;101872.56;;;16.51;31.70
8637;BME280;4356;49.068;8.658;2023-02-11T07:33:51;101862.72;;;16.50;31.79
8637;BME280;4356;49.068;8.658;2023-02-11T07:36:17;101860.88;;;16.50;31.54
8637;BME280;4356;49.068;8.658;2023-02-11T07:38:43;101861.06;;;16.57;31.58
8637;BME280;4356;49.068;8.658;2023-02-11T07:41:13;101856.66;;;16.56;31.57
8637;BME280;4356;49.068;8.658;2023-02-11T07:43:40;101853.63;;;16.59;31.74
8637;BME280;4356;49.068;8.658;2023-02-11T07:46:14;101855.31;;;16.60;31.86
8637;BME280;4356;49.068;8.658;2023-02-11T07:48:40;101846.16;;;16.61;31.80
8637;BME280;4356;49.068;8.658;2023-02-11T07:51:07;101840.56;;;16.62;31.60
8637;BME280;4356;49.068;8.658;2023-02-11T07:53:33;101836.31;;;16.60;31.88
8637;BME280;4356;49.068;8.658;2023-02-11T07:55:58;101837.69;;;16.64;31.67
8637;BME280;4356;49.068;8.658;2023-02-11T07:58:24;101836.69;;;16.65;31.83
8637;BME280;4356;49.068;8.658;2023-02-11T08:00:50;101829.72;;;16.62;31.67
8637;BME280;4356;49.068;8.658;2023-02-11T08:03:15;101823.25;;;16.63;31.11
8637;BME280;4356;49.068;8.658;2023-02-11T08:05:41;101818.50;;;16.65;31.58
8637;BME280;4356;49.068;8.658;2023-02-11T08:08:08;101820.91;;;16.68;31.46
8637;BME280;4356;49.068;8.658;2023-02-11T08:10:33;101822.09;;;16.66;31.11
8637;BME280;4356;49.068;8.658;2023-02-11T08:12:59;101801.88;;;16.60;30.78
8637;BME280;4356;49.068;8.658;2023-02-11T08:15:24;101816.50;;;16.67;31.03
8637;BME280;4356;49.068;8.658;2023-02-11T08:17:50;101800.38;;;16.66;31.28
8637;BME280;4356;49.068;8.658;2023-02-11T08:20:16;101800.72;;;16.63;31.32
8637;BME280;4356;49.068;8.658;2023-02-11T08:22:42;101791.34;;;16.57;31.08
8637;BME280;4356;49.068;8.658;2023-02-11T08:25:07;101815.66;;;16.67;31.58
8637;BME280;4356;49.068;8.658;2023-02-11T08:27:33;101799.50;;;16.57;31.33
8637;BME280;4356;49.068;8.658;2023-02-11T08:29:58;101813.09;;;16.65;31.29
8637;BME280;4356;49.068;8.658;2023-02-11T08:32:24;101816.66;;;16.66;31.21
8637;BME280;4356;49.068;8.658;2023-02-11T08:34:51;101810.88;;;16.61;31.34
8637;BME280;4356;49.068;8.658;2023-02-11T08:37:18;101809.16;;;16.60;31.56
8637;BME280;4356;49.068;8.658;2023-02-11T08:39:44;101821.75;;;16.69;31.26
8637;BME280;4356;49.068;8.658;2023-02-11T08:42:12;101823.47;;;16.70;31.33
8637;BME280;4356;49.068;8.658;2023-02-11T08:44:39;101822.09;;;16.66;31.54
8637;BME280;4356;49.068;8.658;2023-02-11T08:47:08;101806.44;;;16.60;31.64
8637;BME280;4356;49.068;8.658;2023-02-11T08:49:34;101807.47;;;16.59;31.97
8637;BME280;4356;49.068;8.658;2023-02-11T08:52:00;101832.81;;;16.75;31.47
8637;BME280;4356;49.068;8.658;2023-02-11T08:54:29;101832.66;;;16.77;31.82
8637;BME280;4356;49.068;8.658;2023-02-11T08:56:56;101840.63;;;16.78;31.75
8637;BME280;4356;49.068;8.658;2023-02-11T08:59:22;101840.16;;;16.83;32.13
8637;BME280;4356;49.068;8.658;2023-02-11T09:01:48;101824.69;;;16.83;31.91
8637;BME280;4356;49.068;8.658;2023-02-11T09:04:14;101822.50;;;16.87;32.40
8637;BME280;4356;49.068;8.658;2023-02-11T09:06:39;101823.38;;;16.95;31.77
8637;BME280;4356;49.068;8.658;2023-02-11T09:09:05;101789.59;;;16.90;31.84
8637;BME280;4356;49.068;8.658;2023-02-11T09:11:35;101801.16;;;17.08;31.91
8637;BME280;4356;49.068;8.658;2023-02-11T09:14:02;101782.31;;;16.98;31.78
8637;BME280;4356;49.068;8.658;2023-02-11T09:16:30;101814.09;;;17.22;31.78
8637;BME280;4356;49.068;8.658;2023-02-11T09:18:58;101800.16;;;17.17;31.91
8637;BME280;4356;49.068;8.658;2023-02-11T09:21:24;101824.31;;;17.28;32.01
8637;BME280;4356;49.068;8.658;2023-02-11T09:23:50;101833.13;;;17.30;32.04
8637;BME280;4356;49.068;8.658;2023-02-11T09:26:18;101800.47;;;17.14;31.78
8637;BME280;4356;49.068;8.658;2023-02-11T09:28:44;101805.59;;;17.25;32.25
8637;BME280;4356;49.068;8.658;2023-02-11T09:31:13;101826.69;;;17.39;31.31
8637;BME280;4356;49.068;8.658;2023-02-11T09:33:40;101829.06;;;17.42;31.64
8637;BME280;4356;49.068;8.658;2023-02-11T09:36:13;101837.59;;;17.47;31.59
8637;BME280;4356;49.068;8.658;2023-02-11T09:38:39;101837.09;;;17.52;31.35
8637;BME280;4356;49.068;8.658;2023-02-11T09:41:04;101835.72;;;17.48;31.30
8637;BME280;4356;49.068;8.658;2023-02-11T09:43:42;101847.81;;;17.53;31.63
8637;BME280;4356;49.068;8.658;2023-02-11T09:46:12;101848.16;;;17.50;31.73
8637;BME280;4356;49.068;8.658;2023-02-11T09:48:40;101846.25;;;17.51;31.60
8637;BME280;4356;49.068;8.658;2023-02-11T09:51:41;101843.16;;;17.45;32.05
8637;BME280;4356;49.068;8.658;2023-02-11T09:54:25;101870.25;;;17.55;31.62
8637;BME280;4356;49.068;8.658;2023-02-11T09:56:52;101879.22;;;17.56;31.55
8637;BME280;4356;49.068;8.658;2023-02-11T09:59:18;101871.91;;;17.56;31.34
8637;BME280;4356;49.068;8.658;2023-02-11T10:02:01;101877.34;;;17.56;31.43
8637;BME280;4356;49.068;8.658;2023-02-11T10:10:26;101873.13;;;17.70;31.17
8637;BME280;4356;49.068;8.658;2023-02-11T10:13:47;101869.56;;;17.77;31.08
8637;BME280;4356;49.068;8.658;2023-02-11T10:16:42;101853.25;;;17.77;30.70
8637;BME280;4356;49.068;8.658;2023-02-11T10:19:29;101866.84;;;17.85;30.86
8637;BME280;4356;49.068;8.658;2023-02-11T10:22:24;101856.47;;;17.81;30.42
8637;BME280;4356;49.068;8.658;2023-02-11T10:24:57;101866.16;;;17.91;30.55
8637;BME280;4356;49.068;8.658;2023-02-11T10:27:33;101859.19;;;17.97;30.71
8637;BME280;4356;49.068;8.658;2023-02-11T10:30:19;101844.38;;;17.99;30.29
8637;BME280;4356;49.068;8.658;2023-02-11T10:33:24;101852.00;;;18.12;30.30
8637;BME280;4356;49.068;8.658;2023-02-11T10:35:51;101848.59;;;18.18;30.11
8637;BME280;4356;49.068;8.658;2023-02-11T10:38:16;101840.09;;;18.21;30.08
8637;BME280;4356;49.068;8.658;2023-02-11T10:40:42;101838.72;;;18.25;29.43
8637;BME280;4356;49.068;8.658;2023-02-11T10:43:15;101838.53;;;18.34;29.53
8637;BME280;4356;49.068;8.658;2023-02-11T10:45:48;101835.44;;;18.37;29.27
8637;BME280;4356;49.068;8.658;2023-02-11T10:48:45;101826.25;;;18.46;29.27
8637;BME280;4356;49.068;8.658;2023-02-11T10:51:24;101830.34;;;18.51;29.27
8637;BME280;4356;49.068;8.658;2023-02-11T10:56:30;101812.09;;;18.59;29.40
8637;BME280;4356;49.068;8.658;2023-02-11T10:59:03;101798.47;;;18.59;29.19
8637;BME280;4356;49.068;8.658;2023-02-11T11:01:59;101817.31;;;18.69;29.13
8637;BME280;4356;49.068;8.658;2023-02-11T11:06:58;101802.69;;;18.70;28.88
8637;BME280;4356;49.068;8.658;2023-02-11T11:09:47;101806.94;;;18.72;28.94
8637;BME280;4356;49.068;8.658;2023-02-11T11:12:35;101813.84;;;18.83;28.75
8637;BME280;4356;49.068;8.658;2023-02-11T11:15:23;101823.38;;;18.87;28.45
8637;BME280;4356;49.068;8.658;2023-02-11T11:17:50;101822.19;;;18.89;28.53
8637;BME280;4356;49.068;8.658;2023-02-11T11:20:27;101815.69;;;18.90;28.57
8637;BME280;4356;49.068;8.658;2023-02-11T11:23:14;101816.00;;;18.95;28.37
8637;BME280;4356;49.068;8.658;2023-02-11T11:25:44;101800.19;;;18.91;28.46
8637;BME280;4356;49.068;8.658;2023-02-11T11:28:24;101821.22;;;19.05;28.44
8637;BME280;4356;49.068;8.658;2023-02-11T11:30:51;101816.25;;;19.08;28.12
8637;BME280;4356;49.068;8.658;2023-02-11T11:33:24;101820.31;;;19.12;28.11
8637;BME280;4356;49.068;8.658;2023-02-11T11:38:26;101803.97;;;19.12;28.12
8637;BME280;4356;49.068;8.658;2023-02-11T11:41:13;101815.66;;;19.21;28.38
8637;BME280;4356;49.068;8.658;2023-02-11T11:43:38;101809.19;;;19.22;28.04
8637;BME280;4356;49.068;8.658;2023-02-11T11:46:04;101819.53;;;19.26;28.26
8637;BME280;4356;49.068;8.658;2023-02-11T11:48:40;101816.47;;;19.29;27.95
8637;BME280;4356;49.068;8.658;2023-02-11T11:51:10;101808.16;;;19.31;27.74
8637;BME280;4356;49.068;8.658;2023-02-11T11:53:47;101802.31;;;19.34;28.06
8637;BME280;4356;49.068;8.658;2023-02-11T11:56:22;101810.13;;;19.37;28.13
8637;BME280;4356;49.068;8.658;2023-02-11T11:58:49;101803.00;;;19.36;27.92
8637;BME280;4356;49.068;8.658;2023-02-11T12:04:32;101797.44;;;19.44;28.15
8637;BME280;4356;49.068;8.658;2023-02-11T12:07:26;101804.63;;;19.45;28.12
8637;BME280;4356;49.068;8.658;2023-02-11T12:12:42;101793.34;;;19.48;28.15
8637;BME280;4356;49.068;8.658;2023-02-11T12:16:04;101798.59;;;19.49;28.29
8637;BME280;4356;49.068;8.658;2023-02-11T12:24:21;101783.09;;;19.50;28.28
8637;BME280;4356;49.068;8.658;2023-02-11T12:27:18;101791.94;;;19.52;28.15
8637;BME280;4356;49.068;8.658;2023-02-11T12:29:57;101800.59;;;19.56;28.04
8637;BME280;4356;49.068;8.658;2023-02-11T12:32:46;101801.28;;;19.58;28.28
8637;BME280;4356;49.068;8.658;2023-02-11T12:35:24;101800.22;;;19.59;28.18
8637;BME280;4356;49.068;8.658;2023-02-11T12:38:48;101784.72;;;19.59;27.92
8637;BME280;4356;49.068;8.658;2023-02-11T12:41:14;101779.28;;;19.59;27.92
8637;BME280;4356;49.068;8.658;2023-02-11T12:44:06;101762.44;;;19.56;28.13
8637;BME280;4356;49.068;8.658;2023-02-11T12:46:42;101775.69;;;19.59;28.24
8637;BME280;4356;49.068;8.658;2023-02-11T12:59:09;101781.06;;;19.67;28.36
8637;BME280;4356;49.068;8.658;2023-02-11T13:01:42;101766.97;;;19.63;28.00
8637;BME280;4356;49.068;8.658;2023-02-11T13:04:16;101774.22;;;19.71;27.80
8637;BME280;4356;49.068;8.658;2023-02-11T13:06:54;101756.91;;;19.64;28.05
8637;BME280;4356;49.068;8.658;2023-02-11T13:09:29;101743.94;;;19.66;28.06
8637;BME280;4356;49.068;8.658;2023-02-11T13:11:59;101753.22;;;19.71;27.94
8637;BME280;4356;49.068;8.658;2023-02-11T13:14:47;101765.84;;;19.72;27.98
8637;BME280;4356;49.068;8.658;2023-02-11T13:17:31;101762.47;;;19.70;28.09
8637;BME280;4356;49.068;8.658;2023-02-11T13:20:02;101759.19;;;19.75;28.00
8637;BME280;4356;49.068;8.658;2023-02-11T13:22:57;101753.06;;;19.73;27.92
8637;BME280;4356;49.068;8.658;2023-02-11T13:25:42;101753.91;;;19.73;28.19
8637;BME280;4356;49.068;8.658;2023-02-11T13:28:24;101765.84;;;19.72;28.30
8637;BME280;4356;49.068;8.658;2023-02-11T13:30:53;101731.88;;;19.60;28.45
8637;BME280;4356;49.068;8.658;2023-02-11T13:33:32;101746.47;;;19.67;28.03
8637;BME280;4356;49.068;8.658;2023-02-11T13:38:26;101752.59;;;19.69;28.37
8637;BME280;4356;49.068;8.658;2023-02-11T13:41:18;101756.16;;;19.70;27.99
8637;BME280;4356;49.068;8.658;2023-02-11T13:44:21;101751.75;;;19.69;28.03
8637;BME280;4356;49.068;8.658;2023-02-11T13:46:57;101759.06;;;19.68;28.23
8637;BME280;4356;49.068;8.658;2023-02-11T13:49:38;101751.81;;;19.61;28.21
8637;BME280;4356;49.068;8.658;2023-02-11T13:52:23;101758.41;;;19.66;28.08
8637;BME280;4356;49.068;8.658;2023-02-11T13:54:52;101747.88;;;19.63;28.18
8637;BME280;4356;49.068;8.658;2023-02-11T13:59:53;101755.00;;;19.64;28.54
8637;BME280;4356;49.068;8.658;2023-02-11T14:11:04;101754.53;;;19.61;28.68
8637;BME280;4356;49.068;8.658;2023-02-11T14:16:21;101751.31;;;19.57;28.65
8637;BME280;4356;49.068;8.658;2023-02-11T14:26:59;101737.78;;;19.49;28.70
8637;BME280;4356;49.068;8.658;2023-02-11T14:32:32;101738.59;;;19.49;28.88
8637;BME280;4356;49.068;8.658;2023-02-11T14:38:36;101743.09;;;19.42;28.86
8637;BME280;4356;49.068;8.658;2023-02-11T14:41:21;101744.34;;;19.40;28.88
8637;BME280;4356;49.068;8.658;2023-02-11T14:43:52;101751.28;;;19.42;29.13
8637;BME280;4356;49.068;8.658;2023-02-11T14:46:21;101750.81;;;19.39;29.00
8637;BME280;4356;49.068;8.658;2023-02-11T14:48:49;101752.88;;;19.37;29.17
8637;BME280;4356;49.068;8.658;2023-02-11T14:51:20;101755.06;;;19.41;29.19
8637;BME280;4356;49.068;8.658;2023-02-11T14:54:13;101758.78;;;19.40;29.37
8637;BME280;4356;49.068;8.658;2023-02-11T14:56:41;101750.50;;;19.34;29.25
8637;BME280;4356;49.068;8.658;2023-02-11T14:59:17;101758.31;;;19.37;29.36
8637;BME280;4356;49.068;8.658;2023-02-11T15:01:45;101759.84;;;19.39;29.38
8637;BME280;4356;49.068;8.658;2023-02-11T15:04:28;101766.34;;;19.38;29.19